Wormley Airport

Jump to: basic info | weather | runways | comments

Related pages: nearby airports | nearby navaids | notams | map

Basic information (top)

Codes: 85LL
Location: lon 41.683899, lat -88.262299, elev 680 ft / 207 m msl
Status: small_airport

Weather (top)

Current conditions for Lewis University Airport 9nm (16km) ESE (rec'd 2014/04/19 19:15Z):

KLOT 191915Z AUTO 13013KT 10SM CLR 19/01 A3028

Airport forecast for Dupage Airport 13nm (25km) N (rec'd 2014/04/19 18:36Z):

TAF KDPA 191735Z 1918/2018 10010KT P6SM FEW300 
     FM192100 14010KT P6SM FEW300 
     FM201200 16008KT P6SM SCT250 
     FM201700 19009G15KT P6SM SCT180

Runways (top)

N/S: 2,300 x 100 ft (701 x 30 m) — grass — not lighted

Latest comments (top)

No comments yet for Wormley Airport

More... (top)

See also NOTAMs and nearby airports and navaids, or visit the Wormley Airport page at the main OurAirports website..